LKPR

Prague/Václav Havel Airport

Airport
ICAO code
LKPR
IATA Code
PRG
Summary
ICAO Region
EUR
ICAO Territory
Location

Ruzyně, Prague

Serving
Prague
Elevation
1247 ft
Coordinates
50° 6' 6" N , 14° 15' 36" E
KCC
Dfb
Metar
Observation
LKPR 150100Z VRB02KT CAVOK 17/16 Q1007 NOSIG
Station
Praha / Ruzyne
Date/Time
2022-08-15 01:00:00
Wind speed
02 kts
Lowest cloud amount
clouds and visibility OK
Temperature
17°C
Dew point
16°C
Humidity
93%
QNH
1007 hPa
Weather condition
n/a

Description

International airport serving capital of the Czech Republic.

Climatology

Humid Continental climate (Köppen climate classification Dfb) - Variable weather patterns and a large seasonal temperature variance. Summers are often warm and humid with frequent thunderstorms and winters can be very cold with frequent snowfall and persistent snow cover.

Runways

Designator Length Width Surface Rops
4/22 2120 60 ASP Yes/Yes
13/31 3250 45 CON Yes/Yes
6/24 3715 45 CON Yes/Yes

SKYbrary Partners:

Safety knowledge contributed by: